Upstream stations:
Downstream station:
SHEF ID: BFFO2 Cimarron River near Buffalo, OK
STATION TYPE:
Regulating: Stage = 6.00, Flow = 750
PRECIP STAGE RIV-FLOW BAT-LOAD
in ft cfs volt
Ccp-Rev Ccp-Rev Ccp-Rev Ccp-Rev
(US/Central)
02/07 00:00 0.00 3.31 16 12.73
02/07 01:00 0.00 3.33 17 12.73
02/07 02:00 0.00 3.35 19 12.73
02/07 03:00 0.00 3.34 18 12.65
02/07 04:00 0.00 3.37 21 12.65
02/07 05:00 0.00 3.39 22 12.65
02/07 06:00 0.00 3.37 21 12.65
02/07 07:00 0.00 3.35 19 12.65
02/07 08:00 0.00 3.36 20 12.57
02/07 09:00 0.00 3.38 21 13.44
02/07 10:00 0.00 3.37 21 13.60
02/07 11:00 0.00 3.36 20 13.60
02/07 12:00 0.00 3.35 19 13.76
02/07 13:00 0.00 3.34 18 13.84
02/07 14:00 0.00 3.35 19 13.68
02/07 15:00 0.00 3.36 20 13.68
02/07 16:00 0.00 3.32 16 13.53
02/07 17:00 0.00 3.33 17 13.53
02/07 18:00 0.00 3.30 15 13.44
02/07 19:00 0.00 3.31 16 12.97
02/07 20:00 0.00 3.30 15 12.89
02/07 21:00 0.00 3.30 15 12.81
02/07 22:00 0.00 3.38 21 12.81
02/07 23:00 0.00 3.38 21 12.73